Time;durP1;ratioP1;P1;durP2;ratioP2;P2;SDS_P1;SDS_P2;PMS_P1;PMS_P2;Temp;Humidity;BMP_temperature;BMP_pressure;BME280_temperature;BME280_humidity;BME280_pressure;Samples;Min_cycle;Max_cycle;Signal;HPM_P1;HPM_P2
2022/09/06 00:01:23;;;;;;;2.13;1.92;;;;;;;22.99;48.53;97262.34;4952993;28;20174;-75
2022/09/06 00:03:49;;;;;;;1.88;1.73;;;;;;;23.02;48.55;97259.06;4968399;28;20176;-75
2022/09/06 00:06:17;;;;;;;2.45;2.13;;;;;;;23.02;48.83;97268.91;4950281;28;20276;-75
2022/09/06 00:08:43;;;;;;;2.40;2.20;;;;;;;23.02;48.83;97271.56;4934705;28;20567;-75
2022/09/06 00:11:09;;;;;;;2.42;2.10;;;;;;;22.96;49.23;97261.13;4947715;28;20577;-75
2022/09/06 00:13:35;;;;;;;2.33;2.17;;;;;;;22.90;49.68;97259.75;4963443;28;20179;-75
2022/09/06 00:16:11;;;;;;;5.53;2.50;;;;;;;22.83;50.42;97261.38;4949070;28;20633;-75
2022/09/06 00:18:37;;;;;;;2.50;2.30;;;;;;;22.93;50.57;97267.06;4964361;28;20157;-75
2022/09/06 00:21:04;;;;;;;2.47;2.00;;;;;;;22.91;50.11;97268.47;4957178;28;20219;-75
2022/09/06 00:23:29;;;;;;;3.25;2.58;;;;;;;22.94;50.01;97268.63;4945639;28;20200;-75
2022/09/06 00:26:05;;;;;;;2.88;2.45;;;;;;;22.80;50.30;97273.41;4965906;28;20217;-75
2022/09/06 00:28:30;;;;;;;2.47;2.28;;;;;;;22.70;50.06;97385.25;4966578;28;20157;-74
2022/09/06 00:30:56;;;;;;;3.25;2.20;;;;;;;22.32;51.58;97404.56;4935024;28;20654;-75
2022/09/06 00:33:22;;;;;;;4.82;2.70;;;;;;;22.47;51.33;97424.53;4956052;28;20196;-76
2022/09/06 00:35:48;;;;;;;4.22;2.30;;;;;;;22.38;52.59;97435.13;4947784;28;20389;-75
2022/09/06 00:38:13;;;;;;;6.38;2.40;;;;;;;22.56;52.70;97434.00;4967929;28;20501;-75
2022/09/06 00:40:40;;;;;;;2.88;1.90;;;;;;;22.76;52.87;97442.41;4950897;28;20405;-75
2022/09/06 00:43:06;;;;;;;2.40;2.20;;;;;;;23.08;52.32;97438.41;4942787;28;20188;-74
2022/09/06 00:45:32;;;;;;;3.97;2.13;;;;;;;23.28;52.09;97436.88;4976069;28;20220;-75
2022/09/06 00:47:58;;;;;;;3.35;1.95;;;;;;;23.44;51.97;97445.09;4949738;28;20228;-75
2022/09/06 01:05:08;;;;;;;4.40;2.30;;;;;;;23.14;57.79;97436.34;4968089;28;20196;-77
2022/09/06 01:08:12;;;;;;;3.08;2.10;;;;;;;22.62;59.57;97438.06;4966635;28;20278;-76
2022/09/06 01:10:43;;;;;;;4.65;2.33;;;;;;;22.38;60.75;97429.81;4905895;28;20301;-75
2022/09/06 01:13:27;;;;;;;3.17;2.30;;;;;;;22.17;62.10;97422.47;4905416;28;20297;-76
2022/09/06 01:16:37;;;;;;;3.90;2.47;;;;;;;22.19;61.82;97419.53;4905092;28;20214;-75
2022/09/06 01:19:08;;;;;;;3.85;2.80;;;;;;;22.06;62.84;97397.41;4891878;28;20756;-75
2022/09/06 01:21:40;;;;;;;5.32;2.80;;;;;;;21.89;63.90;97396.31;4921693;28;20240;-75
2022/09/06 01:24:42;;;;;;;4.20;2.60;;;;;;;21.58;65.20;97390.38;4904987;28;20718;-75
2022/09/06 01:27:26;;;;;;;3.40;3.05;;;;;;;21.33;66.31;97374.09;4888127;28;20226;-75
2022/09/06 01:30:06;;;;;;;3.63;3.08;;;;;;;20.89;67.56;97363.44;4907652;28;20210;-75
2022/09/06 01:32:55;;;;;;;3.40;3.03;;;;;;;21.14;67.28;97356.63;4907825;28;20189;-76
2022/09/06 01:35:32;;;;;;;3.90;3.50;;;;;;;21.39;66.12;97367.59;4924166;28;20165;-76
2022/09/06 01:37:58;;;;;;;4.30;3.13;;;;;;;21.66;65.41;97384.28;4904669;28;20896;-75
2022/09/06 01:40:24;;;;;;;4.68;3.25;;;;;;;21.56;65.80;97392.53;4905764;28;20388;-75
2022/09/06 01:42:52;;;;;;;5.90;4.10;;;;;;;21.22;66.66;97380.81;4963516;28;20177;-76
2022/09/06 01:45:20;;;;;;;4.95;3.67;;;;;;;21.26;66.72;97374.56;4968364;28;20172;-75
2022/09/06 01:48:15;;;;;;;4.72;3.17;;;;;;;21.47;65.79;97388.03;4966790;28;20207;-75
2022/09/06 01:50:56;;;;;;;4.88;3.40;;;;;;;21.35;66.42;97390.47;4952091;28;20211;-75
2022/09/06 01:53:52;;;;;;;4.53;3.63;;;;;;;21.34;66.74;97391.56;4967657;28;20210;-75
2022/09/06 01:56:29;;;;;;;4.10;3.40;;;;;;;21.36;65.98;97378.03;4966548;28;20696;-77
2022/09/06 01:59:00;;;;;;;6.75;3.95;;;;;;;21.36;66.63;97360.25;4965424;28;20190;-75
2022/09/06 02:01:35;;;;;;;5.07;3.85;;;;;;;21.11;67.40;97349.31;4986152;28;20198;-75
2022/09/06 02:04:14;;;;;;;3.72;3.33;;;;;;;21.15;66.90;97352.13;4967669;28;20205;-76
2022/09/06 02:06:44;;;;;;;4.38;3.33;;;;;;;21.22;66.97;97341.84;4964731;28;20583;-76
2022/09/06 02:09:14;;;;;;;4.25;3.22;;;;;;;21.36;66.21;97341.72;4931261;28;20187;-75
2022/09/06 02:11:48;;;;;;;4.78;4.00;;;;;;;21.27;66.54;97344.34;4964503;28;20184;-75
2022/09/06 02:14:17;;;;;;;6.70;3.38;;;;;;;21.44;66.02;97338.28;4915809;28;20207;-75
2022/09/06 02:16:44;;;;;;;6.40;3.65;;;;;;;21.51;65.47;97343.16;4947872;28;20357;-75
2022/09/06 02:19:32;;;;;;;3.92;3.30;;;;;;;21.46;65.69;97336.13;4946641;28;20189;-75
2022/09/06 02:21:59;;;;;;;3.30;3.00;;;;;;;21.64;64.87;97336.94;4980496;28;20288;-75
2022/09/06 02:24:29;;;;;;;3.45;2.88;;;;;;;21.63;64.67;97340.66;4931744;28;20792;-75
2022/09/06 02:26:55;;;;;;;2.63;2.42;;;;;;;21.73;64.43;97349.38;4947560;28;20573;-75
2022/09/06 02:29:22;;;;;;;5.25;2.83;;;;;;;21.70;64.35;97348.91;4947628;28;20214;-75
2022/09/06 02:32:03;;;;;;;3.13;2.60;;;;;;;21.49;64.58;97348.00;4948077;28;20233;-75
2022/09/06 02:34:28;;;;;;;3.72;2.40;;;;;;;21.63;64.25;97350.50;4966794;28;20195;-75
2022/09/06 02:36:54;;;;;;;3.80;2.72;;;;;;;21.54;64.31;97352.34;4947489;28;20216;-75
2022/09/06 02:39:19;;;;;;;2.83;2.53;;;;;;;21.51;64.51;97354.53;4947572;28;20258;-75
2022/09/06 02:41:46;;;;;;;3.50;2.58;;;;;;;21.46;64.30;97346.72;4947338;28;20292;-76
2022/09/06 02:44:12;;;;;;;3.97;2.65;;;;;;;21.46;64.36;97340.63;4932840;28;20276;-76
2022/09/06 02:46:38;;;;;;;3.03;2.70;;;;;;;21.43;64.38;97344.66;4946929;28;20290;-75
2022/09/06 02:49:03;;;;;;;3.13;2.78;;;;;;;21.40;64.29;97341.88;4947618;28;20319;-75
2022/09/06 02:51:29;;;;;;;3.80;3.40;;;;;;;21.32;64.52;97333.59;4947433;28;20584;-75
2022/09/06 02:53:55;;;;;;;4.25;2.80;;;;;;;21.30;64.53;97341.09;4947539;28;20191;-75
2022/09/06 02:56:21;;;;;;;3.75;3.38;;;;;;;21.25;64.61;97335.94;4978265;28;20266;-75
2022/09/06 02:58:47;;;;;;;3.78;2.55;;;;;;;21.27;64.31;97327.69;4946916;28;20380;-75
2022/09/06 03:01:12;;;;;;;4.20;3.50;;;;;;;21.16;64.74;97329.06;4914805;28;20237;-75
2022/09/06 03:03:37;;;;;;;3.50;3.13;;;;;;;21.18;64.65;97325.03;4930932;28;20215;-75
2022/09/06 03:06:03;;;;;;;3.92;3.20;;;;;;;21.06;64.86;97316.88;4931527;28;20194;-75
2022/09/06 03:08:32;;;;;;;4.18;2.90;;;;;;;21.06;64.76;97312.41;4966535;28;20133;-75
2022/09/06 03:10:58;;;;;;;4.20;2.63;;;;;;;21.07;64.83;97308.66;4951189;28;20105;-75
2022/09/06 03:13:24;;;;;;;4.15;2.75;;;;;;;21.11;64.46;97306.94;4966739;28;20199;-76
2022/09/06 03:15:59;;;;;;;3.90;2.60;;;;;;;20.94;64.74;97299.00;4950331;28;20215;-75
2022/09/06 03:18:26;;;;;;;4.10;2.72;;;;;;;20.97;64.48;97292.28;4930408;28;20292;-75
2022/09/06 03:20:52;;;;;;;5.57;2.95;;;;;;;21.03;64.42;97291.84;4954235;28;20635;-77
2022/09/06 03:23:18;;;;;;;3.90;2.63;;;;;;;21.03;64.20;97291.84;4971081;28;20333;-76
2022/09/06 03:25:44;;;;;;;2.63;2.28;;;;;;;20.99;64.28;97287.44;4970818;28;20270;-75
2022/09/06 03:28:10;;;;;;;3.38;2.30;;;;;;;20.90;64.40;97288.22;4949877;28;20382;-75
2022/09/06 03:30:35;;;;;;;4.07;2.65;;;;;;;20.85;64.45;97282.28;4951076;28;20760;-75
2022/09/06 03:33:01;;;;;;;3.47;2.30;;;;;;;20.91;64.33;97281.84;4950920;28;20262;-75
2022/09/06 03:35:26;;;;;;;2.40;2.20;;;;;;;20.95;64.24;97285.41;4951040;28;20326;-75
2022/09/06 03:37:52;;;;;;;4.78;2.58;;;;;;;20.79;64.53;97280.91;4965909;28;20199;-76
2022/09/06 03:40:17;;;;;;;3.10;2.10;;;;;;;20.76;64.19;97285.69;4970458;28;20180;-76
2022/09/06 03:42:42;;;;;;;2.90;2.53;;;;;;;20.71;64.04;97285.06;4970471;28;20207;-76
2022/09/06 03:45:08;;;;;;;2.42;2.22;;;;;;;20.65;64.41;97287.09;4970407;28;20262;-75
2022/09/06 03:47:34;;;;;;;3.63;2.80;;;;;;;20.69;63.79;97289.88;4986142;28;20176;-76
2022/09/06 03:49:59;;;;;;;3.67;2.80;;;;;;;20.69;63.46;97290.66;4970181;28;20348;-76
2022/09/06 03:52:24;;;;;;;2.75;2.35;;;;;;;20.63;63.52;97291.91;4970636;28;20208;-75
2022/09/06 03:54:50;;;;;;;2.40;2.20;;;;;;;20.58;63.73;97290.13;4988146;28;20296;-75
2022/09/06 03:57:15;;;;;;;2.60;2.33;;;;;;;20.55;63.79;97290.75;4965724;28;20161;-77
2022/09/06 03:59:40;;;;;;;2.92;2.58;;;;;;;20.51;63.84;97300.41;4934646;28;20274;-75
2022/09/06 04:02:06;;;;;;;3.05;2.50;;;;;;;20.54;63.69;97306.91;4968626;28;20643;-75
2022/09/06 04:04:32;;;;;;;4.15;2.67;;;;;;;20.48;63.85;97308.16;4950459;28;20232;-76
2022/09/06 04:06:57;;;;;;;2.92;2.55;;;;;;;20.42;64.50;97296.91;4940846;28;20200;-75
2022/09/06 04:09:23;;;;;;;3.90;2.70;;;;;;;20.31;64.43;97288.47;4934335;28;20405;-76
2022/09/06 04:11:48;;;;;;;4.05;2.90;;;;;;;20.28;64.50;97283.03;4933673;28;20294;-75
2022/09/06 04:14:13;;;;;;;3.72;2.10;;;;;;;20.23;64.57;97283.94;4949009;28;20545;-75
2022/09/06 04:16:39;;;;;;;2.78;2.33;;;;;;;20.24;64.30;97282.84;4954197;28;20202;-76
2022/09/06 04:19:04;;;;;;;3.70;2.92;;;;;;;20.20;64.69;97289.81;4968654;28;20194;-76
2022/09/06 04:21:30;;;;;;;3.53;2.58;;;;;;;20.26;64.35;97285.19;4968728;28;20514;-76
2022/09/06 04:23:55;;;;;;;3.42;2.40;;;;;;;20.24;63.85;97290.78;4968560;28;20663;-76
2022/09/06 04:26:21;;;;;;;3.13;2.33;;;;;;;20.20;64.15;97287.19;4962592;28;20278;-75
2022/09/06 04:28:46;;;;;;;3.47;2.60;;;;;;;20.11;64.19;97279.19;4966626;28;20295;-75
2022/09/06 04:31:11;;;;;;;2.90;2.60;;;;;;;20.10;64.12;97276.88;4932024;28;20697;-75
2022/09/06 04:33:37;;;;;;;2.58;2.30;;;;;;;20.09;64.47;97281.38;4932250;28;20239;-76
2022/09/06 04:36:05;;;;;;;3.53;2.65;;;;;;;19.98;64.57;97288.78;4966425;28;20627;-76
2022/09/06 04:38:37;;;;;;;3.55;2.67;;;;;;;19.97;64.51;97287.22;4932225;28;20297;-75
2022/09/06 04:41:04;;;;;;;3.85;2.70;;;;;;;20.07;63.90;97296.00;4932461;28;20266;-75
2022/09/06 04:43:29;;;;;;;3.60;2.63;;;;;;;19.97;63.97;97295.16;4932301;28;20216;-76
2022/09/06 04:45:55;;;;;;;3.33;2.92;;;;;;;19.87;64.49;97299.91;4980862;28;20527;-76
2022/09/06 04:48:20;;;;;;;3.53;2.63;;;;;;;19.81;64.75;97296.63;4967540;28;20105;-75
2022/09/06 04:50:46;;;;;;;3.03;2.72;;;;;;;19.68;65.20;97287.63;4970410;28;20285;-77
2022/09/06 04:53:11;;;;;;;3.03;2.70;;;;;;;19.72;64.94;97291.22;4957489;28;20298;-78
2022/09/06 04:55:37;;;;;;;5.32;2.88;;;;;;;19.59;64.92;97284.16;4949403;28;20230;-76
2022/09/06 04:58:03;;;;;;;2.97;2.45;;;;;;;19.56;65.12;97290.81;4947029;28;20212;-77
2022/09/06 05:00:31;;;;;;;2.60;2.17;;;;;;;19.62;64.91;97292.25;4975363;28;20238;-76
2022/09/06 05:02:56;;;;;;;3.05;2.63;;;;;;;19.69;64.99;97289.22;4963796;28;20261;-76
2022/09/06 05:05:22;;;;;;;3.20;2.90;;;;;;;19.68;64.87;97292.16;4934267;28;20188;-75
2022/09/06 05:07:54;;;;;;;3.65;3.00;;;;;;;19.56;65.21;97298.72;4945863;28;20105;-75
2022/09/06 05:10:21;;;;;;;3.67;2.97;;;;;;;19.65;64.93;97304.88;4975911;28;20648;-75
2022/09/06 05:12:48;;;;;;;2.58;2.38;;;;;;;19.62;64.95;97313.41;4918432;28;1422388;-75
2022/09/06 05:15:14;;;;;;;3.10;2.50;;;;;;;19.70;64.76;97308.47;4984502;28;20172;-75
2022/09/06 05:17:40;;;;;;;2.40;2.20;;;;;;;19.65;65.02;97315.44;4950793;28;20248;-78
2022/09/06 05:20:08;;;;;;;3.63;2.83;;;;;;;19.61;64.89;97313.69;4988266;28;20322;-75
2022/09/06 05:22:34;;;;;;;4.07;2.60;;;;;;;19.59;65.24;97316.63;4986087;28;20183;-75
2022/09/06 05:24:59;;;;;;;3.08;2.75;;;;;;;19.63;65.45;97316.81;4947746;28;20661;-75
2022/09/06 05:27:25;;;;;;;3.95;3.00;;;;;;;19.62;65.19;97315.22;4955081;28;20201;-75
2022/09/06 05:29:50;;;;;;;3.90;2.90;;;;;;;19.60;65.58;97320.03;4979721;28;20399;-75
2022/09/06 05:32:16;;;;;;;3.20;2.60;;;;;;;19.67;65.51;97317.75;4971317;28;20678;-75
2022/09/06 05:34:41;;;;;;;3.10;2.80;;;;;;;19.70;65.66;97321.69;4966204;28;20200;-75
2022/09/06 05:37:06;;;;;;;4.05;2.70;;;;;;;19.73;65.54;97319.22;4963940;28;20362;-75
2022/09/06 05:39:32;;;;;;;2.88;2.58;;;;;;;19.76;65.76;97316.00;4952105;28;20204;-75
2022/09/06 05:41:57;;;;;;;3.50;2.63;;;;;;;19.82;65.97;97327.22;4984115;28;20297;-76
2022/09/06 05:44:23;;;;;;;3.53;3.15;;;;;;;19.89;65.96;97324.16;4983507;28;20214;-75
2022/09/06 05:46:48;;;;;;;3.38;3.08;;;;;;;19.92;66.02;97324.34;4927559;28;20199;-75
2022/09/06 05:49:14;;;;;;;5.63;3.95;;;;;;;19.81;65.98;97328.31;4963539;28;20684;-75
2022/09/06 05:51:40;;;;;;;5.15;3.95;;;;;;;19.63;66.33;97333.44;4948438;28;20162;-76
2022/09/06 05:54:06;;;;;;;4.55;3.30;;;;;;;19.62;66.67;97339.00;4948413;28;20802;-76
2022/09/06 05:56:32;;;;;;;4.70;3.97;;;;;;;19.68;66.35;97337.06;4966410;28;20162;-76
2022/09/06 05:58:57;;;;;;;3.53;3.10;;;;;;;19.79;66.43;97341.03;4947999;28;20202;-76
2022/09/06 06:01:25;;;;;;;3.60;3.30;;;;;;;19.94;65.82;97348.59;4968018;28;20288;-75
2022/09/06 06:03:59;;;;;;;4.07;3.67;;;;;;;19.95;66.12;97349.41;4967888;28;20161;-76
2022/09/06 06:06:27;;;;;;;4.53;3.47;;;;;;;20.10;66.20;97350.88;4967970;28;20285;-76
2022/09/06 06:08:53;;;;;;;4.85;3.28;;;;;;;20.26;66.07;97346.78;4966123;28;20279;-75
2022/09/06 06:11:18;;;;;;;4.15;3.72;;;;;;;20.33;66.10;97359.56;4963155;28;20241;-75
2022/09/06 06:13:44;;;;;;;4.18;3.30;;;;;;;20.39;65.88;97353.06;4945807;28;20258;-75
2022/09/06 06:16:15;;;;;;;2.85;2.65;;;;;;;20.41;65.95;97356.19;4965795;28;20210;-76
2022/09/06 06:18:40;;;;;;;3.38;3.08;;;;;;;20.57;66.12;97354.72;4962729;28;20641;-75
2022/09/06 06:21:16;;;;;;;3.95;3.28;;;;;;;20.52;65.98;97357.47;4950877;28;20199;-76
2022/09/06 06:23:44;;;;;;;2.95;2.65;;;;;;;20.73;65.37;97352.47;4947850;28;20285;-76
2022/09/06 06:26:11;;;;;;;4.05;3.42;;;;;;;20.86;64.94;97356.09;4949432;28;20209;-75
2022/09/06 06:28:37;;;;;;;2.80;2.60;;;;;;;20.92;65.23;97354.06;4936357;28;20204;-75
2022/09/06 06:31:03;;;;;;;3.20;2.90;;;;;;;20.98;65.83;97352.88;4950060;28;20363;-76
2022/09/06 06:33:29;;;;;;;2.90;2.67;;;;;;;21.04;65.13;97354.28;4931304;28;20203;-74
2022/09/06 06:36:01;;;;;;;3.38;3.08;;;;;;;20.98;65.09;97350.22;4948053;28;20204;-76
2022/09/06 06:38:31;;;;;;;4.53;3.33;;;;;;;21.02;65.25;97345.84;4967026;28;20059;-75
2022/09/06 06:40:57;;;;;;;4.25;3.10;;;;;;;21.16;64.60;97350.25;4963106;28;20177;-76
2022/09/06 06:43:27;;;;;;;4.18;2.90;;;;;;;21.12;64.70;97342.16;4947682;28;20657;-75
2022/09/06 06:45:52;;;;;;;2.85;2.63;;;;;;;21.30;64.41;97342.94;4948732;28;20039;-77
2022/09/06 06:48:18;;;;;;;3.20;2.90;;;;;;;21.40;64.43;97342.63;4956094;28;20036;-77
2022/09/06 06:50:43;;;;;;;3.10;2.80;;;;;;;21.50;64.09;97344.25;4952986;28;20767;-75
2022/09/06 06:53:09;;;;;;;3.42;3.13;;;;;;;21.53;64.38;97345.50;4972143;28;20063;-76
2022/09/06 06:55:34;;;;;;;4.05;3.42;;;;;;;21.64;64.06;97336.13;4989534;28;20796;-76
2022/09/06 06:58:00;;;;;;;4.43;3.90;;;;;;;21.70;63.63;97342.84;4971586;28;20020;-77
2022/09/06 07:00:25;;;;;;;3.75;3.45;;;;;;;21.80;63.68;97349.72;4964638;28;20140;-77
2022/09/06 07:02:52;;;;;;;3.47;3.03;;;;;;;21.93;63.38;97340.78;4971146;28;20071;-76
2022/09/06 07:05:18;;;;;;;3.45;3.15;;;;;;;22.00;63.24;97349.06;4968304;28;20583;-76
2022/09/06 07:07:43;;;;;;;3.83;3.05;;;;;;;22.13;63.07;97349.97;4964523;28;20354;-76
2022/09/06 07:10:14;;;;;;;3.40;3.10;;;;;;;22.08;62.83;97353.53;4954151;28;20206;-76
2022/09/06 07:12:40;;;;;;;3.63;2.80;;;;;;;22.25;62.65;97355.38;4976310;28;20397;-76
2022/09/06 07:15:06;;;;;;;3.53;2.75;;;;;;;22.35;62.65;97343.69;4964543;28;20188;-76
2022/09/06 07:17:33;;;;;;;3.63;2.55;;;;;;;22.44;62.65;97341.00;4966381;28;20201;-77
2022/09/06 07:19:58;;;;;;;3.25;2.88;;;;;;;22.47;61.98;97337.72;4946442;28;20190;-76
2022/09/06 07:22:24;;;;;;;2.80;2.60;;;;;;;22.48;62.15;97336.63;4946668;28;20521;-78
2022/09/06 07:24:50;;;;;;;3.95;2.72;;;;;;;22.50;61.99;97344.25;4932380;28;20285;-76
2022/09/06 07:27:16;;;;;;;3.13;2.92;;;;;;;22.48;62.36;97347.22;4963238;28;20499;-76
2022/09/06 07:29:41;;;;;;;3.40;3.10;;;;;;;22.53;61.78;97341.75;4947340;28;20286;-76
2022/09/06 07:32:06;;;;;;;3.42;3.10;;;;;;;22.62;62.11;97342.50;4930523;28;20161;-76
2022/09/06 07:34:36;;;;;;;3.67;3.38;;;;;;;22.92;61.96;97349.72;4947056;28;20193;-76
2022/09/06 07:37:02;;;;;;;3.10;2.70;;;;;;;23.20;60.63;97344.72;4947145;28;20296;-76
2022/09/06 07:39:27;;;;;;;2.72;2.53;;;;;;;23.32;60.48;97346.66;4930603;28;20367;-76
2022/09/06 07:41:53;;;;;;;3.08;2.70;;;;;;;23.41;60.04;97350.06;4946995;28;20181;-76
2022/09/06 07:44:18;;;;;;;3.85;2.92;;;;;;;23.47;60.10;97345.31;4949568;28;20202;-76
2022/09/06 07:46:43;;;;;;;3.05;2.75;;;;;;;23.53;59.74;97352.00;4966272;28;20745;-81
2022/09/06 07:49:09;;;;;;;3.85;2.70;;;;;;;23.75;59.52;97350.88;4966121;28;20194;-76
2022/09/06 07:51:34;;;;;;;19.88;4.13;;;;;;;24.16;58.86;97345.84;4984814;28;20622;-75
2022/09/06 07:53:59;;;;;;;6.00;2.88;;;;;;;24.47;58.23;97356.78;4982953;28;20238;-77
2022/09/06 07:56:25;;;;;;;4.13;2.47;;;;;;;24.86;57.43;97354.63;4966341;28;20278;-77
2022/09/06 07:58:51;;;;;;;3.15;2.67;;;;;;;25.15;56.52;97355.44;4966682;28;20247;-77
2022/09/06 08:01:31;;;;;;;3.35;2.85;;;;;;;25.20;55.61;97349.88;4950827;28;20212;-78
2022/09/06 08:03:58;;;;;;;3.00;2.70;;;;;;;25.55;55.05;97357.41;4951551;28;20208;-78
2022/09/06 08:06:24;;;;;;;3.60;2.60;;;;;;;25.77;54.53;97349.97;4967834;28;20638;-76
2022/09/06 08:08:50;;;;;;;2.72;2.47;;;;;;;25.98;53.66;97352.50;4950541;28;20215;-77
2022/09/06 08:11:16;;;;;;;4.78;2.78;;;;;;;26.24;53.66;97352.03;4935029;28;20181;-78
2022/09/06 08:13:41;;;;;;;2.53;2.33;;;;;;;26.52;52.78;97354.59;4966845;28;20197;-76
2022/09/06 08:16:08;;;;;;;3.47;3.15;;;;;;;26.64;52.05;97358.34;4950236;28;20205;-77
2022/09/06 08:18:34;;;;;;;3.08;2.72;;;;;;;26.80;52.00;97355.66;4966446;28;20254;-77
2022/09/06 08:21:07;;;;;;;3.00;2.28;;;;;;;27.01;50.93;97353.47;4918132;28;20274;-76
2022/09/06 08:23:33;;;;;;;2.30;2.10;;;;;;;27.38;50.43;97352.38;4933865;28;20275;-76
2022/09/06 08:25:58;;;;;;;2.75;2.55;;;;;;;27.50;50.22;97354.13;4917710;28;20189;-77
2022/09/06 08:28:25;;;;;;;2.85;2.30;;;;;;;27.58;49.62;97350.50;4949641;28;20216;-77
2022/09/06 08:30:50;;;;;;;2.92;2.72;;;;;;;27.81;48.92;97343.31;4949905;28;20278;-76
2022/09/06 08:33:20;;;;;;;3.78;2.22;;;;;;;28.09;48.09;97353.00;4933944;28;20640;-78
2022/09/06 08:35:58;;;;;;;3.03;2.25;;;;;;;28.14;48.30;97355.41;4918609;28;20695;-76
2022/09/06 08:38:25;;;;;;;2.75;2.40;;;;;;;28.27;48.20;97357.91;4966124;28;20181;-76
2022/09/06 08:40:51;;;;;;;3.08;2.20;;;;;;;28.31;47.62;97354.16;4933563;28;20279;-76
2022/09/06 08:43:21;;;;;;;2.67;2.47;;;;;;;28.24;47.75;97353.25;4933747;28;20633;-77
2022/09/06 08:45:55;;;;;;;3.20;2.58;;;;;;;28.33;48.05;97348.44;4981564;28;20105;-78
2022/09/06 08:48:21;;;;;;;2.80;2.45;;;;;;;28.65;46.31;97353.56;4952517;28;20199;-77
2022/09/06 08:51:08;;;;;;;4.65;2.58;;;;;;;28.73;46.26;97347.19;4969976;28;20374;-77
2022/09/06 08:53:38;;;;;;;2.78;2.13;;;;;;;28.68;46.02;97347.50;4969551;28;20134;-76
2022/09/06 08:56:14;;;;;;;2.95;2.40;;;;;;;28.79;45.08;97348.44;4969046;28;20240;-77
2022/09/06 08:58:55;;;;;;;3.25;2.30;;;;;;;28.70;45.83;97353.25;4953798;28;20203;-79
2022/09/06 09:01:24;;;;;;;3.58;2.65;;;;;;;28.99;44.97;97353.69;4970014;28;20692;-77
2022/09/06 09:03:51;;;;;;;3.47;2.58;;;;;;;29.06;44.71;97348.41;4969898;28;20207;-75
2022/09/06 09:06:17;;;;;;;3.42;2.50;;;;;;;29.24;44.31;97346.78;4965123;28;20251;-79
2022/09/06 09:09:08;;;;;;;3.90;2.47;;;;;;;29.49;44.73;97354.38;4966028;28;20199;-75
2022/09/06 09:11:34;;;;;;;3.03;2.40;;;;;;;29.83;43.25;97357.09;4949501;28;20642;-76
2022/09/06 09:14:29;;;;;;;2.78;2.35;;;;;;;29.72;43.13;97353.50;4933114;28;20242;-77
2022/09/06 09:17:02;;;;;;;5.93;2.53;;;;;;;29.96;43.40;97355.69;4959180;28;20821;-77
2022/09/06 09:19:30;;;;;;;3.15;2.63;;;;;;;30.02;42.69;97348.88;4966982;28;20335;-76
2022/09/06 09:21:56;;;;;;;2.83;2.53;;;;;;;30.05;43.24;97350.78;4949190;28;20204;-75
2022/09/06 09:24:23;;;;;;;3.22;2.90;;;;;;;30.11;42.74;97356.63;4949031;28;20282;-75
2022/09/06 09:26:52;;;;;;;4.20;2.75;;;;;;;30.22;42.95;97344.06;4966955;28;20290;-75
2022/09/06 09:29:18;;;;;;;4.05;2.50;;;;;;;30.25;42.12;97340.63;4932593;28;20280;-75
2022/09/06 09:31:52;;;;;;;2.88;2.20;;;;;;;30.38;41.43;97346.53;4948484;28;20327;-75
2022/09/06 09:34:27;;;;;;;;;;;;;;;30.19;41.07;97342.09;4948943;28;20297;-75
2022/09/06 09:37:24;;;;;;;4.07;2.13;;;;;;;30.52;40.56;97337.03;4948592;28;20075;-76
2022/09/06 09:39:52;;;;;;;4.50;2.20;;;;;;;30.76;40.52;97333.75;4932611;28;20239;-76
2022/09/06 09:42:28;;;;;;;4.10;2.22;;;;;;;30.91;40.11;97329.22;4932210;28;20289;-75
2022/09/06 09:44:54;;;;;;;3.00;2.08;;;;;;;30.92;39.78;97327.34;4953357;28;20208;-74
2022/09/06 09:47:27;;;;;;;2.63;1.80;;;;;;;30.66;38.66;97325.59;4947990;28;20749;-75
2022/09/06 09:49:52;;;;;;;3.25;2.00;;;;;;;31.13;37.73;97327.47;4948641;28;20650;-76
2022/09/06 09:52:25;;;;;;;3.10;1.88;;;;;;;31.10;38.29;97328.25;4932161;28;20207;-76
2022/09/06 09:54:54;;;;;;;1.70;1.55;;;;;;;31.32;37.35;97328.31;4948623;28;20211;-75
2022/09/06 09:57:20;;;;;;;2.53;2.20;;;;;;;31.33;36.34;97321.81;4932588;28;20265;-73
2022/09/06 09:59:50;;;;;;;2.95;1.92;;;;;;;31.34;37.50;97321.44;4966411;28;20295;-75
2022/09/06 10:02:17;;;;;;;2.88;2.10;;;;;;;31.24;37.52;97318.66;4932013;28;20279;-75
2022/09/06 10:04:48;;;;;;;4.95;2.47;;;;;;;31.22;36.65;97326.34;4966320;28;20256;-75
2022/09/06 10:07:18;;;;;;;3.00;1.70;;;;;;;31.21;36.30;97330.97;4948015;28;20264;-76
2022/09/06 10:09:48;;;;;;;2.60;2.10;;;;;;;31.35;36.79;97325.66;4948318;28;20176;-76
2022/09/06 10:12:27;;;;;;;4.75;2.08;;;;;;;31.44;37.02;97330.66;4948144;28;20302;-78
2022/09/06 10:14:52;;;;;;;3.20;1.95;;;;;;;31.60;36.58;97326.91;4932110;28;20212;-76
2022/09/06 10:17:46;;;;;;;3.90;2.22;;;;;;;31.44;36.98;97322.59;4965801;28;20105;-76
2022/09/06 10:20:12;;;;;;;3.33;2.20;;;;;;;31.68;37.70;97328.47;4931523;28;20239;-75
2022/09/06 10:22:50;;;;;;;2.95;2.20;;;;;;;31.80;36.09;97327.34;4948053;28;20593;-75
2022/09/06 10:25:33;;;;;;;4.15;2.45;;;;;;;32.02;36.16;97330.88;4947988;28;20272;-74
2022/09/06 10:28:17;;;;;;;3.75;2.50;;;;;;;32.21;37.55;97327.81;4931293;28;20547;-75
2022/09/06 10:31:02;;;;;;;2.50;2.13;;;;;;;32.27;36.20;97317.47;4967139;28;20455;-75
2022/09/06 10:34:03;;;;;;;3.65;2.42;;;;;;;32.42;36.10;97312.81;4965761;28;20211;-75
2022/09/06 10:36:33;;;;;;;2.78;1.92;;;;;;;32.38;34.74;97307.44;4963901;28;20188;-74
2022/09/06 10:39:21;;;;;;;1.73;1.38;;;;;;;32.43;33.13;97303.59;4947548;28;20242;-75
2022/09/06 10:42:14;;;;;;;3.63;2.03;;;;;;;32.19;35.68;97308.59;4965942;28;20615;-75
2022/09/06 10:45:17;;;;;;;4.72;1.90;;;;;;;32.38;34.27;97312.81;4936969;28;20190;-75
2022/09/06 10:48:08;;;;;;;2.08;1.60;;;;;;;32.33;34.98;97312.44;4951417;28;20330;-75
2022/09/06 10:50:36;;;;;;;2.88;2.10;;;;;;;32.20;34.85;97315.53;4969611;28;20203;-75
2022/09/06 10:53:08;;;;;;;2.47;2.00;;;;;;;32.38;34.90;97309.38;4968344;28;20277;-75
2022/09/06 10:55:35;;;;;;;4.47;2.20;;;;;;;32.59;35.09;97309.31;4950916;28;20183;-74
2022/09/06 10:58:03;;;;;;;3.78;2.30;;;;;;;32.50;35.08;97311.66;4966986;28;20314;-75
2022/09/06 11:00:41;;;;;;;8.75;3.47;;;;;;;32.63;34.55;97315.53;4970258;28;20280;-75
2022/09/06 11:03:38;;;;;;;5.68;1.90;;;;;;;33.09;33.39;97300.41;4972133;28;20238;-74
2022/09/06 11:06:24;;;;;;;4.60;2.00;;;;;;;33.03;33.02;97305.41;4948209;28;20744;-75
2022/09/06 11:08:58;;;;;;;2.50;2.30;;;;;;;33.48;33.44;97301.41;4953587;28;20825;-75
2022/09/06 11:11:53;;;;;;;3.65;2.40;;;;;;;33.91;32.38;97301.97;4951228;28;20326;-75
2022/09/06 11:14:30;;;;;;;2.95;2.17;;;;;;;33.99;32.62;97294.59;4971074;28;20184;-75
2022/09/06 11:17:13;;;;;;;4.45;2.30;;;;;;;33.67;33.54;97300.94;4952662;28;20379;-75
2022/09/06 11:19:44;;;;;;;2.85;2.40;;;;;;;33.71;33.00;97295.56;4986360;28;20345;-75
2022/09/06 11:22:11;;;;;;;4.55;2.40;;;;;;;33.66;32.59;97299.41;4967196;28;20203;-75
2022/09/06 11:25:05;;;;;;;5.90;2.50;;;;;;;33.38;33.07;97295.69;4966580;28;20195;-75
2022/09/06 11:27:30;;;;;;;4.55;2.15;;;;;;;33.49;32.78;97301.03;4969136;28;20190;-75
2022/09/06 11:29:58;;;;;;;3.83;2.10;;;;;;;33.31;32.58;97292.25;4985307;28;20696;-75
2022/09/06 11:32:36;;;;;;;2.53;2.13;;;;;;;33.08;33.16;97298.88;4950356;28;20154;-75
2022/09/06 11:35:06;;;;;;;3.30;2.15;;;;;;;32.98;32.95;97303.13;4966754;28;20285;-75
2022/09/06 11:37:34;;;;;;;3.63;2.20;;;;;;;32.95;33.21;97298.50;4966770;28;20101;-76
2022/09/06 11:40:21;;;;;;;2.63;1.88;;;;;;;33.04;33.02;97295.41;4950570;28;20379;-74
2022/09/06 11:42:47;;;;;;;3.28;2.47;;;;;;;33.43;32.65;97294.50;4970837;28;20285;-75
2022/09/06 11:45:15;;;;;;;2.90;2.63;;;;;;;33.32;32.89;97289.16;4951197;28;20208;-75
2022/09/06 11:47:42;;;;;;;3.70;2.20;;;;;;;33.09;33.67;97297.72;4950400;28;20200;-74
2022/09/06 11:50:20;;;;;;;2.55;2.00;;;;;;;32.81;34.17;97293.16;4934253;28;20217;-74
2022/09/06 11:52:58;;;;;;;2.75;2.10;;;;;;;32.81;34.51;97282.38;4968845;28;20157;-75
2022/09/06 11:55:29;;;;;;;5.03;2.22;;;;;;;32.53;35.23;97289.34;4951329;28;20208;-75
2022/09/06 11:57:56;;;;;;;2.42;2.00;;;;;;;32.39;35.25;97283.94;4950224;28;20235;-75
2022/09/06 12:00:23;;;;;;;2.10;1.90;;;;;;;32.18;34.78;97276.63;4952378;28;20646;-75
2022/09/06 12:02:49;;;;;;;3.17;1.90;;;;;;;32.11;33.88;97272.03;4969117;28;20208;-75